Time;durP1;ratioP1;P1;durP2;ratioP2;P2;SDS_P1;SDS_P2;PMS_P1;PMS_P2;Temp;Humidity;BMP_temperature;BMP_pressure;BME280_temperature;BME280_humidity;BME280_pressure;Samples;Min_cycle;Max_cycle;Signal;HPM_P1;HPM_P2
2021/08/31 00:01:37;;;;;;;1999.90;999.90;;;;;;;15.12;97.81;97757.06;5053759;28;20048;-67
2021/08/31 00:04:04;;;;;;;1999.90;999.90;;;;;;;15.18;98.26;97754.78;5046212;28;20488;-67
2021/08/31 00:06:31;;;;;;;1999.90;999.90;;;;;;;15.26;98.34;97756.53;5051017;28;20061;-67
2021/08/31 00:08:58;;;;;;;1999.90;999.90;;;;;;;15.31;97.24;97750.63;5052920;28;20496;-67
2021/08/31 00:11:25;;;;;;;1999.90;999.90;;;;;;;15.26;97.90;97757.31;5041610;28;20099;-67
2021/08/31 00:13:52;;;;;;;1999.90;999.90;;;;;;;15.00;99.69;97755.25;5047534;28;20350;-67
2021/08/31 00:16:18;;;;;;;1999.90;999.90;;;;;;;15.06;98.56;97758.53;5053320;28;20040;-67
2021/08/31 00:18:45;;;;;;;1999.90;999.90;;;;;;;14.83;99.49;97756.53;5044851;28;20045;-67
2021/08/31 00:21:12;;;;;;;1999.90;999.90;;;;;;;14.92;99.27;97750.75;5051210;28;20393;-67
2021/08/31 00:23:39;;;;;;;1999.90;999.90;;;;;;;15.03;99.18;97756.50;5053289;28;20053;-67
2021/08/31 00:26:06;;;;;;;1999.90;999.90;;;;;;;15.17;98.13;97745.63;5039991;28;20119;-67
2021/08/31 00:28:33;;;;;;;1999.90;999.90;;;;;;;15.17;98.05;97755.94;5051918;28;20067;-67
2021/08/31 00:30:59;;;;;;;1999.90;999.90;;;;;;;15.03;99.07;97748.16;5052584;28;20071;-67
2021/08/31 00:33:26;;;;;;;1999.90;999.90;;;;;;;15.19;97.94;97750.84;5063176;28;20442;-67
2021/08/31 00:35:52;;;;;;;1999.90;999.90;;;;;;;15.30;97.10;97743.44;5052884;28;20045;-67
2021/08/31 00:38:19;;;;;;;1999.90;999.90;;;;;;;15.19;96.73;97751.63;5050524;28;20520;-67
2021/08/31 00:40:47;;;;;;;1999.90;999.90;;;;;;;15.29;96.35;97756.59;5039620;28;20041;-67
2021/08/31 00:43:17;;;;;;;1999.90;999.90;;;;;;;15.29;97.14;97755.78;5045268;28;20073;-67
2021/08/31 00:45:43;;;;;;;1999.90;999.90;;;;;;;15.32;96.76;97755.84;5039020;28;20048;-67
2021/08/31 00:48:10;;;;;;;1999.90;999.90;;;;;;;15.30;96.91;97757.38;5053247;28;20045;-67
2021/08/31 00:50:38;;;;;;;1999.90;999.90;;;;;;;15.30;97.02;97757.38;5049431;28;20109;-67
2021/08/31 00:53:05;;;;;;;1999.90;999.90;;;;;;;15.38;96.73;97752.72;5052258;28;20098;-67
2021/08/31 00:55:32;;;;;;;1999.90;999.90;;;;;;;15.41;95.79;97752.00;5037151;28;20496;-68
2021/08/31 00:57:58;;;;;;;1999.90;999.90;;;;;;;15.38;96.55;97759.13;5050604;28;20430;-68
2021/08/31 01:00:25;;;;;;;1999.90;999.90;;;;;;;15.16;97.32;97748.78;5050264;28;20091;-68
2021/08/31 01:02:52;;;;;;;1999.90;999.90;;;;;;;15.11;97.46;97750.69;5053679;28;20076;-68
2021/08/31 01:05:18;;;;;;;1999.90;999.90;;;;;;;15.07;98.06;97749.03;5045712;28;20087;-68
2021/08/31 01:07:45;;;;;;;1999.90;999.90;;;;;;;14.99;98.62;97752.84;5040209;28;20106;-68
2021/08/31 01:10:14;;;;;;;1999.90;999.90;;;;;;;15.08;98.15;97756.19;5052395;28;20076;-68
2021/08/31 01:12:41;;;;;;;1999.90;999.90;;;;;;;15.16;97.38;97757.94;5043783;28;20411;-68
2021/08/31 01:15:10;;;;;;;1999.90;999.90;;;;;;;15.08;97.64;97756.19;5042557;28;20049;-68
2021/08/31 01:17:37;;;;;;;1999.90;999.90;;;;;;;15.18;97.24;97758.38;5052107;28;20351;-68
2021/08/31 01:20:04;;;;;;;1999.90;999.90;;;;;;;15.00;97.35;97755.25;5043852;28;20053;-68
2021/08/31 01:22:31;;;;;;;1999.90;999.90;;;;;;;14.87;98.59;97764.94;5042327;28;20057;-68
2021/08/31 01:24:59;;;;;;;1999.90;999.90;;;;;;;15.12;97.44;97763.44;5052049;28;20102;-68
2021/08/31 01:27:26;;;;;;;1999.90;999.90;;;;;;;14.67;98.99;97764.97;5072792;28;20382;-69
2021/08/31 01:29:54;;;;;;;1999.90;999.90;;;;;;;14.96;98.00;97757.16;5042947;28;20051;-68
2021/08/31 01:32:21;;;;;;;1999.90;999.90;;;;;;;14.69;98.98;97759.03;5051386;28;20426;-69
2021/08/31 01:34:48;;;;;;;1999.90;999.90;;;;;;;14.62;99.59;97756.94;5042349;28;20053;-68
2021/08/31 01:37:14;;;;;;;1999.90;999.90;;;;;;;14.72;99.52;97756.34;5043534;28;20434;-69
2021/08/31 01:39:41;;;;;;;1999.90;999.90;;;;;;;14.60;99.40;97753.66;5051578;28;20110;-69
2021/08/31 01:42:08;;;;;;;1999.90;999.90;;;;;;;14.52;100.00;97751.94;5041200;28;20362;-69
2021/08/31 01:44:35;;;;;;;1999.90;999.90;;;;;;;14.49;100.00;97742.34;5048710;28;20053;-69
2021/08/31 01:47:02;;;;;;;1999.90;999.90;;;;;;;14.18;100.00;97748.84;5051698;28;20041;-69
2021/08/31 01:49:29;;;;;;;1999.90;999.90;;;;;;;14.25;100.00;97746.22;5049075;28;20430;-69
2021/08/31 01:51:55;;;;;;;1999.90;999.90;;;;;;;14.17;100.00;97744.44;5050105;28;20404;-69
2021/08/31 01:54:22;;;;;;;1999.90;999.90;;;;;;;14.25;100.00;97737.88;5051079;28;20041;-69
2021/08/31 01:56:49;;;;;;;1999.90;999.90;;;;;;;14.32;100.00;97735.25;5042375;28;20058;-69
2021/08/31 01:59:15;;;;;;;1999.90;999.90;;;;;;;14.60;100.00;97742.53;5050481;28;20044;-69
2021/08/31 02:01:42;;;;;;;1999.90;999.90;;;;;;;14.58;100.00;97744.91;5050626;28;20076;-69
2021/08/31 02:04:09;;;;;;;1999.90;999.90;;;;;;;14.47;100.00;97735.50;5051471;28;20049;-70
2021/08/31 02:06:36;;;;;;;1999.90;999.90;;;;;;;14.25;100.00;97740.66;5048337;28;20060;-70
2021/08/31 02:09:02;;;;;;;1999.90;999.90;;;;;;;14.12;100.00;97741.97;5035295;28;20488;-70
2021/08/31 02:11:29;;;;;;;1999.90;999.90;;;;;;;14.19;100.00;97733.78;5051447;28;20072;-70
2021/08/31 02:13:56;;;;;;;1999.90;999.90;;;;;;;14.43;100.00;97736.25;5047959;28;20115;-70
2021/08/31 02:16:22;;;;;;;1999.90;999.90;;;;;;;14.39;100.00;97737.34;5035511;28;20071;-68
2021/08/31 02:18:49;;;;;;;1999.90;999.90;;;;;;;14.14;100.00;97731.25;5052226;28;20079;-69
2021/08/31 02:21:16;;;;;;;1999.90;999.90;;;;;;;14.04;100.00;97735.44;5047045;28;20493;-69
2021/08/31 02:23:43;;;;;;;1999.90;999.90;;;;;;;14.23;100.00;97729.06;5042277;28;20041;-69
2021/08/31 02:26:09;;;;;;;1999.90;999.90;;;;;;;14.34;100.00;97724.56;5052042;28;20408;-69
2021/08/31 02:28:36;;;;;;;1999.90;999.90;;;;;;;14.37;100.00;97729.38;5046725;28;20134;-69
2021/08/31 02:31:03;;;;;;;1999.90;999.90;;;;;;;14.26;100.00;97722.78;5037525;28;20076;-69
2021/08/31 02:33:30;;;;;;;1999.90;999.90;;;;;;;14.40;100.00;97728.63;5050567;28;20102;-69
2021/08/31 02:35:56;;;;;;;1999.90;999.90;;;;;;;14.47;100.00;97721.59;5045829;28;20085;-69
2021/08/31 02:38:23;;;;;;;1999.90;999.90;;;;;;;14.33;100.00;97720.16;5050521;28;20106;-69
2021/08/31 02:40:49;;;;;;;1999.90;999.90;;;;;;;14.27;100.00;97719.63;5050089;28;20049;-69
2021/08/31 02:43:16;;;;;;;1999.90;999.90;;;;;;;14.05;100.00;97720.34;5044977;28;20508;-68
2021/08/31 02:45:43;;;;;;;1999.90;999.90;;;;;;;14.12;100.00;97705.81;5040390;28;20049;-69
2021/08/31 02:48:11;;;;;;;1999.90;999.90;;;;;;;13.91;100.00;97709.75;5055639;28;20057;-68
2021/08/31 02:50:38;;;;;;;1999.90;999.90;;;;;;;13.97;100.00;97705.50;5048618;28;20049;-68
2021/08/31 02:53:04;;;;;;;1999.90;999.90;;;;;;;14.00;100.00;97704.78;5041485;28;20099;-68
2021/08/31 02:55:31;;;;;;;1999.90;999.90;;;;;;;13.88;100.00;97704.91;5053885;28;20354;-68
2021/08/31 02:57:58;;;;;;;1999.90;999.90;;;;;;;13.91;100.00;97696.63;5053482;28;20056;-68
2021/08/31 03:00:30;;;;;;;1999.90;999.90;;;;;;;14.06;100.00;97699.72;5055060;28;20076;-68
2021/08/31 03:02:58;;;;;;;1999.90;999.90;;;;;;;13.96;100.00;97703.88;5053671;28;20456;-68
2021/08/31 03:05:25;;;;;;;1999.90;999.90;;;;;;;13.68;100.00;97699.31;5053733;28;20060;-68
2021/08/31 03:07:52;;;;;;;1999.90;999.90;;;;;;;13.74;100.00;97692.31;5054293;28;20068;-68
2021/08/31 03:10:20;;;;;;;1999.90;999.90;;;;;;;13.84;100.00;97692.91;5053718;28;20112;-68
2021/08/31 03:12:47;;;;;;;1999.90;999.90;;;;;;;14.01;100.00;97695.28;5053752;28;20048;-68
2021/08/31 03:15:14;;;;;;;1999.90;999.90;;;;;;;13.67;100.00;97686.59;5053558;28;20110;-68
2021/08/31 03:17:41;;;;;;;1999.90;999.90;;;;;;;14.04;100.00;97691.75;5054476;28;20045;-68
2021/08/31 03:20:08;;;;;;;1999.90;999.90;;;;;;;13.75;100.00;97687.53;5054050;28;20088;-68
2021/08/31 03:22:35;;;;;;;1999.90;999.90;;;;;;;13.88;100.00;97688.25;5053443;28;20052;-68
2021/08/31 03:25:02;;;;;;;1999.90;999.90;;;;;;;13.86;100.00;97683.03;5054256;28;20801;-68
2021/08/31 03:27:33;;;;;;;1999.90;999.90;;;;;;;13.94;100.00;97695.13;5053840;28;20059;-68
2021/08/31 03:30:00;;;;;;;1999.90;999.90;;;;;;;14.04;100.00;97688.97;5053074;28;20479;-68
2021/08/31 03:32:26;;;;;;;1999.90;999.90;;;;;;;14.01;100.00;97684.16;5085940;28;20041;-69
2021/08/31 03:34:53;;;;;;;1999.90;999.90;;;;;;;14.09;100.00;97680.34;5054235;28;20450;-68
2021/08/31 03:37:20;;;;;;;1999.90;999.90;;;;;;;13.89;100.00;97693.44;5052196;28;20081;-68
2021/08/31 03:39:46;;;;;;;1999.90;999.90;;;;;;;13.77;100.00;97689.97;5070164;28;20107;-68
2021/08/31 03:42:13;;;;;;;1999.90;999.90;;;;;;;13.58;100.00;97688.75;5051345;28;20057;-68
2021/08/31 03:44:39;;;;;;;1999.90;999.90;;;;;;;13.89;100.00;97685.09;5052918;28;20053;-68
2021/08/31 03:47:06;;;;;;;1999.90;999.90;;;;;;;13.71;100.00;97693.03;5048784;28;20110;-68
2021/08/31 03:49:33;;;;;;;1999.90;999.90;;;;;;;13.86;100.00;97682.22;5053256;28;20053;-68
2021/08/31 03:51:59;;;;;;;1999.90;999.90;;;;;;;13.81;100.00;97694.44;5051962;28;20067;-68
2021/08/31 03:54:26;;;;;;;1999.90;999.90;;;;;;;13.99;100.00;97692.03;5067623;28;20103;-68
2021/08/31 03:56:52;;;;;;;1999.90;999.90;;;;;;;14.06;100.00;97691.41;5050154;28;20106;-68
2021/08/31 03:59:19;;;;;;;1999.90;999.90;;;;;;;14.32;100.00;97681.59;5052099;28;20048;-68
2021/08/31 04:01:46;;;;;;;1999.90;999.90;;;;;;;14.27;100.00;97691.03;5041931;28;20053;-68
2021/08/31 04:04:13;;;;;;;1999.90;999.90;;;;;;;14.12;100.00;97684.38;5057673;28;20052;-69
2021/08/31 04:06:39;;;;;;;1999.90;999.90;;;;;;;14.09;100.00;97683.13;5054117;28;20393;-68
2021/08/31 04:09:06;;;;;;;1999.90;999.90;;;;;;;14.03;100.00;97686.56;5046717;28;20450;-68
2021/08/31 04:11:32;;;;;;;1999.90;999.90;;;;;;;14.03;100.00;97690.13;5048332;28;20053;-68
2021/08/31 04:13:59;;;;;;;1999.90;999.90;;;;;;;14.05;100.00;97687.00;5047262;28;20053;-68
2021/08/31 04:16:26;;;;;;;1999.90;999.90;;;;;;;13.99;100.00;97680.91;5048500;28;20833;-68
2021/08/31 04:18:52;;;;;;;1999.90;999.90;;;;;;;13.97;100.00;97682.47;5049293;28;20065;-68
2021/08/31 04:21:19;;;;;;;1999.90;999.90;;;;;;;14.09;100.00;97677.56;5047713;28;20081;-68
2021/08/31 04:23:45;;;;;;;1999.90;999.90;;;;;;;13.89;100.00;97675.97;5048006;28;20493;-68
2021/08/31 04:26:12;;;;;;;1999.90;999.90;;;;;;;14.01;100.00;97684.16;5049493;28;20049;-68
2021/08/31 04:28:39;;;;;;;1999.90;999.90;;;;;;;14.21;100.00;97686.94;5044954;28;20083;-68
2021/08/31 04:31:05;;;;;;;1999.90;999.90;;;;;;;14.27;100.00;97696.59;5046534;28;20393;-68
2021/08/31 04:33:32;;;;;;;1999.90;999.90;;;;;;;14.27;100.00;97685.47;5045901;28;20465;-68
2021/08/31 04:35:59;;;;;;;1999.90;999.90;;;;;;;14.20;100.00;97696.44;5049556;28;20063;-68
2021/08/31 04:38:25;;;;;;;1999.90;999.90;;;;;;;13.64;100.00;97692.06;5046144;28;20084;-68
2021/08/31 04:40:52;;;;;;;1999.90;999.90;;;;;;;13.87;100.00;97694.94;5039621;28;20080;-68
2021/08/31 04:43:19;;;;;;;1999.90;999.90;;;;;;;14.09;100.00;97691.47;5036800;28;20118;-68
2021/08/31 04:45:45;;;;;;;1999.90;999.90;;;;;;;14.00;100.00;97685.31;5049254;28;20499;-68
2021/08/31 04:48:12;;;;;;;1999.90;999.90;;;;;;;14.17;100.00;97686.88;5047650;28;20432;-68
2021/08/31 04:50:39;;;;;;;1999.90;999.90;;;;;;;13.99;100.00;97682.91;5049882;28;20084;-68
2021/08/31 04:53:05;;;;;;;1999.90;999.90;;;;;;;14.07;100.00;97687.47;5081136;28;20393;-68
2021/08/31 04:55:32;;;;;;;1999.90;999.90;;;;;;;14.15;100.00;97677.28;5048778;28;20080;-67
2021/08/31 04:57:59;;;;;;;1999.90;999.90;;;;;;;14.07;100.00;97682.69;5065143;28;20111;-67
2021/08/31 05:00:25;;;;;;;1999.90;999.90;;;;;;;13.68;100.00;97685.44;5048707;28;20485;-67
2021/08/31 05:02:52;;;;;;;1999.90;999.90;;;;;;;14.33;100.00;97683.19;5049368;28;20080;-67
2021/08/31 05:05:19;;;;;;;1999.90;999.90;;;;;;;14.57;100.00;97687.63;5048048;28;20075;-68
2021/08/31 05:07:46;;;;;;;1999.90;999.90;;;;;;;14.77;100.00;97680.91;5048392;28;20080;-68
2021/08/31 05:10:12;;;;;;;1999.90;999.90;;;;;;;14.21;100.00;97675.81;5048866;28;20149;-68
2021/08/31 05:12:40;;;;;;;1999.90;999.90;;;;;;;14.11;100.00;97682.75;5047909;28;20049;-68
2021/08/31 05:15:08;;;;;;;1999.90;999.90;;;;;;;14.21;100.00;97681.38;5048020;28;20057;-68
2021/08/31 05:17:36;;;;;;;1999.90;999.90;;;;;;;14.12;100.00;97689.13;5049388;28;20092;-66
2021/08/31 05:20:04;;;;;;;1999.90;999.90;;;;;;;14.10;100.00;97683.94;5047684;28;20166;-66
2021/08/31 05:22:32;;;;;;;1999.90;999.90;;;;;;;14.01;100.00;97678.59;5048099;28;20056;-66
2021/08/31 05:25:02;;;;;;;1999.90;999.90;;;;;;;14.16;100.00;97681.69;5049569;28;20153;-66
2021/08/31 05:27:30;;;;;;;1999.90;999.90;;;;;;;14.55;100.00;97678.88;5047780;28;20048;-66
2021/08/31 05:29:56;;;;;;;1999.90;999.90;;;;;;;14.45;100.00;97669.13;5061317;28;20073;-66
2021/08/31 05:32:24;;;;;;;1999.90;999.90;;;;;;;14.11;100.00;97681.97;5049360;28;20061;-66
2021/08/31 05:34:50;;;;;;;1999.90;999.90;;;;;;;14.07;100.00;97681.91;5048369;28;20080;-66
2021/08/31 05:37:17;;;;;;;1999.90;999.90;;;;;;;14.32;100.00;97687.97;5047947;28;20785;-67
2021/08/31 05:39:44;;;;;;;1999.90;999.90;;;;;;;14.72;100.00;97684.00;5049137;28;20052;-67
2021/08/31 05:42:11;;;;;;;1999.90;999.90;;;;;;;15.02;100.00;97683.31;5044835;28;20053;-68
2021/08/31 05:44:39;;;;;;;1999.90;999.90;;;;;;;14.72;100.00;97684.00;5048087;28;20048;-67
2021/08/31 05:47:06;;;;;;;1999.90;999.90;;;;;;;14.64;100.00;97687.00;5047624;28;20053;-67
2021/08/31 05:49:35;;;;;;;1999.90;999.90;;;;;;;14.81;100.00;97678.16;5045907;28;20119;-68
2021/08/31 05:52:02;;;;;;;1999.90;999.90;;;;;;;14.50;100.00;97673.59;5047992;28;20083;-67
2021/08/31 05:54:29;;;;;;;1999.90;999.90;;;;;;;14.34;100.00;97676.47;5048289;28;20523;-67
2021/08/31 05:56:57;;;;;;;1999.90;999.90;;;;;;;14.15;100.00;97668.94;5048177;28;20098;-68
2021/08/31 05:59:24;;;;;;;1999.90;999.90;;;;;;;14.04;100.00;97671.50;5047005;28;20413;-68
2021/08/31 06:01:55;;;;;;;1999.90;999.90;;;;;;;14.32;100.00;97679.63;5078294;28;20057;-68
2021/08/31 06:04:38;;;;;;;1999.90;999.90;;;;;;;14.32;100.00;97676.03;5047032;28;20049;-68
2021/08/31 06:07:09;;;;;;;1999.90;999.90;;;;;;;14.08;100.00;97672.38;5048319;28;20052;-68
2021/08/31 06:09:39;;;;;;;1999.90;999.90;;;;;;;14.18;100.00;97676.56;5031937;28;20134;-67
2021/08/31 06:12:11;;;;;;;1999.90;999.90;;;;;;;14.16;100.00;97676.91;5049024;28;20332;-69
2021/08/31 06:14:38;;;;;;;;;;;;;;;13.96;100.00;97683.63;5048133;28;20075;-68
2021/08/31 06:17:05;;;;;;;1999.90;999.90;;;;;;;13.99;100.00;97680.13;5046576;28;19959;-68
2021/08/31 06:19:33;;;;;;;1999.90;999.90;;;;;;;14.13;100.00;97687.94;5047890;28;20057;-67
2021/08/31 06:22:00;;;;;;;1999.90;999.90;;;;;;;13.66;100.00;97684.97;5047712;28;20102;-67
2021/08/31 06:24:27;;;;;;;1999.90;999.90;;;;;;;13.91;100.00;97679.16;5046904;28;20088;-67
2021/08/31 06:26:54;;;;;;;1999.90;999.90;;;;;;;13.91;100.00;97693.06;5048386;28;20122;-67
2021/08/31 06:29:20;;;;;;;1999.90;999.90;;;;;;;13.95;100.00;97682.84;5046735;28;20423;-67
2021/08/31 06:31:47;;;;;;;1999.90;999.90;;;;;;;14.23;100.00;97690.97;5047954;28;20508;-68
2021/08/31 06:34:14;;;;;;;1999.90;999.90;;;;;;;14.22;100.00;97689.34;5033991;28;20084;-68
2021/08/31 06:36:40;;;;;;;1999.90;999.90;;;;;;;14.18;100.00;97690.44;5039874;28;20466;-68
2021/08/31 06:39:07;;;;;;;1999.90;999.90;;;;;;;13.96;100.00;97698.31;5038242;28;20052;-68
2021/08/31 06:41:34;;;;;;;1999.90;999.90;;;;;;;14.43;100.00;97686.19;5033594;28;20115;-69
2021/08/31 06:44:03;;;;;;;1999.90;999.90;;;;;;;14.58;100.00;97698.41;5044451;28;20115;-68
2021/08/31 06:46:30;;;;;;;1999.90;999.90;;;;;;;14.69;100.00;97690.28;5046638;28;20049;-68
2021/08/31 06:49:10;;;;;;;1999.90;999.90;;;;;;;14.34;100.00;97688.41;5030111;28;20045;-69
2021/08/31 06:51:36;;;;;;;1999.90;999.90;;;;;;;14.49;100.00;97692.25;5040056;28;20058;-68
2021/08/31 06:54:03;;;;;;;1999.90;999.90;;;;;;;14.56;100.00;97697.97;5044888;28;20052;-68
2021/08/31 06:56:30;;;;;;;1999.90;999.90;;;;;;;14.40;100.00;97703.59;5030134;28;20093;-68
2021/08/31 06:58:56;;;;;;;1999.90;999.90;;;;;;;14.59;100.00;97708.34;5040116;28;20084;-68
2021/08/31 07:01:23;;;;;;;1999.90;999.90;;;;;;;14.76;100.00;97701.53;5037609;28;20133;-68
2021/08/31 07:03:50;;;;;;;1999.90;999.90;;;;;;;14.71;100.00;97701.84;5047192;28;20358;-68
2021/08/31 07:06:17;;;;;;;1999.90;999.90;;;;;;;14.73;100.00;97705.06;5041152;28;20049;-68
2021/08/31 07:08:43;;;;;;;1999.90;999.90;;;;;;;14.79;100.00;97708.34;5047164;28;20073;-69
2021/08/31 07:11:10;;;;;;;1999.90;999.90;;;;;;;14.70;100.00;97705.81;5029486;28;20049;-67
2021/08/31 07:13:36;;;;;;;1999.90;999.90;;;;;;;14.35;100.00;97705.88;5046758;28;20088;-69
2021/08/31 07:16:03;;;;;;;1999.90;999.90;;;;;;;14.77;100.00;97714.28;5074987;28;20117;-69
2021/08/31 07:18:30;;;;;;;1999.90;999.90;;;;;;;14.74;100.00;97709.47;5029560;28;20049;-69
2021/08/31 07:20:57;;;;;;;1999.90;999.90;;;;;;;14.77;100.00;97711.50;5053546;28;20169;-68
2021/08/31 07:23:23;;;;;;;1999.90;999.90;;;;;;;14.81;100.00;97710.75;5055161;28;20048;-68
2021/08/31 07:25:50;;;;;;;1999.90;999.90;;;;;;;14.66;100.00;97713.28;5029299;28;20054;-67
2021/08/31 07:28:17;;;;;;;1999.90;999.90;;;;;;;14.65;100.00;97720.03;5046745;28;20053;-68
2021/08/31 07:30:44;;;;;;;1999.90;999.90;;;;;;;15.15;100.00;97722.91;5047642;28;20114;-68
2021/08/31 07:33:11;;;;;;;1999.90;999.90;;;;;;;15.10;100.00;97717.66;5042614;28;20130;-69
2021/08/31 07:35:38;;;;;;;1999.90;999.90;;;;;;;15.28;100.00;97720.75;5066508;28;20396;-68
2021/08/31 07:38:06;;;;;;;1999.90;999.90;;;;;;;15.04;100.00;97722.72;5049911;28;20130;-69
2021/08/31 07:40:32;;;;;;;1999.90;999.90;;;;;;;15.12;100.00;97718.91;5034394;28;20504;-69
2021/08/31 07:43:00;;;;;;;1999.90;999.90;;;;;;;14.96;100.00;97721.81;5050760;28;20257;-69
2021/08/31 07:45:27;;;;;;;1999.90;999.90;;;;;;;14.74;100.00;97715.03;5048346;28;20462;-68
2021/08/31 07:47:54;;;;;;;1999.90;999.90;;;;;;;14.91;100.00;97718.50;5042043;28;20098;-68
2021/08/31 07:50:21;;;;;;;1999.90;999.90;;;;;;;15.06;100.00;97722.34;5052433;28;20512;-69
2021/08/31 07:52:48;;;;;;;1999.90;999.90;;;;;;;15.49;100.00;97732.22;5047910;28;20048;-69
2021/08/31 07:55:16;;;;;;;1999.90;999.90;;;;;;;15.35;100.00;97722.84;5035474;28;20429;-69
2021/08/31 07:57:43;;;;;;;1999.90;999.90;;;;;;;15.14;100.00;97727.69;5049576;28;20456;-69
2021/08/31 08:00:12;;;;;;;1999.90;999.90;;;;;;;15.01;100.00;97715.13;5047218;28;20123;-68
2021/08/31 08:02:38;;;;;;;1999.90;999.90;;;;;;;15.04;100.00;97722.72;5045079;28;20072;-69
2021/08/31 08:05:06;;;;;;;1999.90;999.90;;;;;;;15.26;100.00;97728.69;5049363;28;20053;-68
2021/08/31 08:07:33;;;;;;;1999.90;999.90;;;;;;;15.18;100.00;97722.16;5046081;28;20057;-68
2021/08/31 08:09:59;;;;;;;1999.90;999.90;;;;;;;15.53;100.00;97732.28;5035815;28;20045;-68
2021/08/31 08:12:26;;;;;;;1999.90;999.90;;;;;;;15.86;100.00;97730.03;5049009;28;20057;-69
2021/08/31 08:14:54;;;;;;;1999.90;999.90;;;;;;;15.28;100.00;97734.66;5048968;28;20505;-69
2021/08/31 08:17:22;;;;;;;1999.90;999.90;;;;;;;15.16;100.00;97734.88;5049391;28;20052;-68
2021/08/31 08:19:50;;;;;;;1999.90;999.90;;;;;;;15.43;100.00;97732.94;5050406;28;20115;-69
2021/08/31 08:22:17;;;;;;;1999.90;999.90;;;;;;;15.29;100.00;97730.72;5048148;28;20045;-69
2021/08/31 08:24:44;;;;;;;1999.90;999.90;;;;;;;15.49;100.00;97737.00;5049344;28;20102;-69
2021/08/31 08:27:11;;;;;;;1999.90;999.90;;;;;;;15.44;100.00;97731.75;5049743;28;20061;-69
2021/08/31 08:29:38;;;;;;;1999.90;999.90;;;;;;;15.21;100.00;97731.75;5048656;28;20099;-69
2021/08/31 08:32:10;;;;;;;1999.90;999.90;;;;;;;15.35;100.00;97737.59;5049241;28;20130;-69
2021/08/31 08:34:37;;;;;;;1999.90;999.90;;;;;;;15.44;100.00;97740.91;5050194;28;20061;-68
2021/08/31 08:37:04;;;;;;;1999.90;999.90;;;;;;;15.75;100.00;97739.00;5047472;28;20084;-68
2021/08/31 08:39:32;;;;;;;1999.90;999.90;;;;;;;15.60;100.00;97738.00;5049067;28;20057;-68
2021/08/31 08:41:59;;;;;;;1999.90;999.90;;;;;;;15.72;100.00;97744.50;5048185;28;20582;-68
2021/08/31 08:44:29;;;;;;;1999.90;999.90;;;;;;;15.21;100.00;97734.53;5041087;28;20099;-68
2021/08/31 08:46:56;;;;;;;1999.90;999.90;;;;;;;15.45;100.00;97727.78;5049244;28;20107;-69
2021/08/31 08:49:23;;;;;;;1999.90;999.90;;;;;;;15.62;100.00;97734.81;5031725;28;20466;-69
2021/08/31 08:51:54;;;;;;;1999.90;999.90;;;;;;;15.68;100.00;97736.13;5039892;28;20438;-68
2021/08/31 08:54:21;;;;;;;1999.90;999.90;;;;;;;15.46;100.00;97744.13;5041613;28;20445;-68
2021/08/31 08:56:48;;;;;;;1999.90;999.90;;;;;;;15.86;100.00;97743.97;5032002;28;20105;-68
2021/08/31 08:59:14;;;;;;;1999.90;999.90;;;;;;;16.14;100.00;97744.38;5048680;28;20103;-68
2021/08/31 09:01:47;;;;;;;1999.90;999.90;;;;;;;15.94;100.00;97749.25;5047927;28;20457;-68
2021/08/31 09:04:17;;;;;;;1999.90;999.90;;;;;;;15.96;100.00;97757.28;5035131;28;20055;-68
2021/08/31 09:06:45;;;;;;;1999.90;999.90;;;;;;;16.12;100.00;97755.13;5047129;28;20492;-68
2021/08/31 09:09:12;;;;;;;1999.90;999.90;;;;;;;16.16;100.00;97758.72;5047610;28;20439;-69
2021/08/31 09:11:48;;;;;;;1999.90;999.90;;;;;;;15.86;100.00;97755.91;5047410;28;20045;-69
2021/08/31 09:14:41;;;;;;;1999.90;999.90;;;;;;;15.40;100.00;97767.09;5050335;28;20110;-68
2021/08/31 09:17:07;;;;;;;1999.90;999.90;;;;;;;15.83;100.00;97762.25;5044464;28;20056;-68
2021/08/31 09:19:35;;;;;;;1999.90;999.90;;;;;;;15.90;100.00;97762.38;5047374;28;20049;-69
2021/08/31 09:22:12;;;;;;;1999.90;999.90;;;;;;;16.13;100.00;97765.06;5047373;28;20049;-68
2021/08/31 09:24:38;;;;;;;1999.90;999.90;;;;;;;16.18;100.00;97761.97;5048004;28;20052;-68
2021/08/31 09:27:05;;;;;;;1999.90;999.90;;;;;;;16.12;100.00;97752.31;5047210;28;20398;-68
2021/08/31 09:29:41;;;;;;;1999.90;999.90;;;;;;;16.13;100.00;97765.06;5065012;28;20052;-69
2021/08/31 09:32:11;;;;;;;1999.90;999.90;;;;;;;15.77;100.00;97758.16;5048225;28;20590;-68
2021/08/31 09:34:40;;;;;;;1999.90;999.90;;;;;;;16.10;100.00;97763.03;5049398;28;20044;-68
2021/08/31 09:37:33;;;;;;;1999.90;999.90;;;;;;;16.03;100.00;97751.78;5055062;28;20056;-68
2021/08/31 09:40:06;;;;;;;1999.90;999.90;;;;;;;16.46;100.00;97759.91;5047779;28;20055;-69
2021/08/31 09:42:34;;;;;;;1999.90;999.90;;;;;;;16.02;100.00;97761.34;5078059;28;20068;-68
2021/08/31 09:45:07;;;;;;;1999.90;999.90;;;;;;;16.35;100.00;97757.00;5047692;28;20049;-68
2021/08/31 09:47:37;;;;;;;1999.90;999.90;;;;;;;16.22;100.00;97752.84;5047554;28;20052;-68
2021/08/31 09:50:06;;;;;;;1999.90;999.90;;;;;;;16.29;100.00;97755.72;5048293;28;20075;-69
2021/08/31 09:52:33;;;;;;;1999.90;999.90;;;;;;;16.64;100.00;97749.81;5046961;28;20104;-69
2021/08/31 09:54:59;;;;;;;1999.90;999.90;;;;;;;16.55;100.00;97746.47;5046472;28;20059;-68
2021/08/31 09:57:41;;;;;;;1999.90;999.90;;;;;;;16.05;100.00;97752.22;5048346;28;20052;-68
2021/08/31 10:00:10;;;;;;;1999.90;999.90;;;;;;;16.07;100.00;97755.41;5046988;28;20111;-68
2021/08/31 10:02:38;;;;;;;1999.90;999.90;;;;;;;16.38;100.00;97750.66;5046047;28;20311;-69
2021/08/31 10:05:06;;;;;;;1999.90;999.90;;;;;;;16.40;100.00;97761.44;5049286;28;20063;-69
2021/08/31 10:07:33;;;;;;;1999.90;999.90;;;;;;;16.31;100.00;97753.34;5046472;28;20057;-68
2021/08/31 10:10:00;;;;;;;1999.90;999.90;;;;;;;16.19;100.00;97746.81;5049060;28;20059;-68
2021/08/31 10:12:29;;;;;;;1999.90;999.90;;;;;;;16.37;100.00;97747.09;5047949;28;20052;-68
2021/08/31 10:14:58;;;;;;;1999.90;999.90;;;;;;;16.33;100.00;97745.41;5046783;28;20106;-69
2021/08/31 10:17:29;;;;;;;1999.90;999.90;;;;;;;16.25;100.00;97744.50;5045733;28;20075;-69
2021/08/31 10:19:59;;;;;;;1999.90;999.90;;;;;;;16.50;100.00;97746.81;5064348;28;20063;-69
2021/08/31 10:22:27;;;;;;;1999.90;999.90;;;;;;;16.81;100.00;97742.81;5046657;28;20503;-68
2021/08/31 10:24:55;;;;;;;1999.90;999.90;;;;;;;16.70;100.00;97748.28;5047224;28;20052;-68
2021/08/31 10:27:42;;;;;;;1999.90;999.90;;;;;;;16.40;100.00;97753.88;5047372;28;20250;-68
2021/08/31 10:30:30;;;;;;;1999.90;999.90;;;;;;;16.54;100.00;97756.06;5035006;28;20508;-68
2021/08/31 10:33:00;;;;;;;1999.90;999.90;;;;;;;16.41;100.00;97763.84;5040772;28;20102;-69
2021/08/31 10:35:35;;;;;;;1999.90;999.90;;;;;;;16.34;100.00;97772.13;5036060;28;20052;-69
2021/08/31 10:38:07;;;;;;;1999.90;999.90;;;;;;;16.61;100.00;97778.44;5047390;28;20327;-69
2021/08/31 10:40:42;;;;;;;1999.90;999.90;;;;;;;16.68;100.00;97777.75;5046677;28;20391;-69
2021/08/31 10:43:11;;;;;;;1999.90;999.90;;;;;;;17.04;100.00;97783.75;5047277;28;20049;-69
2021/08/31 10:45:40;;;;;;;1999.90;999.90;;;;;;;16.64;100.00;97788.06;5029376;28;20111;-69
2021/08/31 10:48:22;;;;;;;1999.90;999.90;;;;;;;17.14;100.00;97783.06;5037246;28;20057;-70
2021/08/31 10:50:58;;;;;;;1999.90;999.90;;;;;;;17.08;100.00;97776.22;5040749;28;20049;-68